Dades meteomassalio
Diari Summary for Juliol 8, 2017 Units:  English    Metric   Both
« Previous Day
Next Day »
Diari Semanal Mensual Anual Personalitzat
  Maxima: Minima: Mijana:
Temperatura: TemperatureC °F 18.2 °F 24.2 °F
Rosada: DewpointC °F 9.8 °F 15.5 °F
Humitat: Humidity % 34 % 61 %
Velocitat del vent: WindSpeedKMH mph 0.0 mph 7.8 mph
Racha vent: WindSpeedGustKMH mph - -
Vent:- - SE
Pressio: PressurehPa in 1009.4 in -
Pluja: 23.9 in    
Historical Graphs
 
 
Tabular Data for Juliol 8, 2017
Time Temperature Dew Point Pressure Wind Wind Speed Wind Gust Humidity Rainfall Rate (Hourly) solar Conditions
TemperatureC °F DewpointC °F PressurehPa in Calm     Humidity % HourlyPrecipMM in SolarRadiationWatts/m^2 W/m2 Conditions
00:04 27.8 °F 10.9 °F 1015.1 in Calm     35 % 0.0 in 0.0 W/m2 CLR
00:09 27.8 °F 10.5 °F 1015.1 in Calm     34 % 0.0 in 0.0 W/m2 CLR
00:14 27.8 °F 10.5 °F 1015.5 in SW 9.7 mph 9.7 mph 34 % 0.0 in 0.0 W/m2 CLR
00:19 27.7 °F 10.4 °F 1015.8 in West 7.4 mph 7.4 mph 34 % 0.0 in 0.0 W/m2 CLR
00:24 27.6 °F 10.3 °F 1016.5 in West 13.0 mph 13.0 mph 34 % 0.0 in 0.0 W/m2 CLR
00:29 27.5 °F 10.7 °F 1016.5 in WNW 13.0 mph 13.0 mph 35 % 0.0 in 0.0 W/m2 CLR
00:34 27.4 °F 10.1 °F 1016.1 in West 11.1 mph 11.1 mph 34 % 0.0 in 0.0 W/m2 CLR
00:39 27.3 °F 10.1 °F 1016.1 in Calm     34 % 0.0 in 0.0 W/m2 CLR
00:44 27.1 °F 10.3 °F 1016.1 in Calm     35 % 0.0 in 0.0 W/m2 CLR
00:49 27.0 °F 10.7 °F 1016.1 in Calm     36 % 0.0 in 0.0 W/m2 CLR
00:54 26.8 °F 10.5 °F 1015.8 in Calm     36 % 0.0 in 0.0 W/m2 CLR
00:59 26.7 °F 10.8 °F 1015.1 in NE 8.0 mph 8.0 mph 37 % 0.0 in 0.0 W/m2 CLR
01:04 26.5 °F 10.6 °F 1014.8 in ENE 7.4 mph 7.4 mph 37 % 0.0 in 0.0 W/m2 CLR
01:09 26.3 °F 10.5 °F 1014.4 in NE 11.1 mph 11.1 mph 37 % 0.0 in 0.0 W/m2 CLR
01:14 26.3 °F 10.4 °F 1014.1 in NNE 11.1 mph 11.1 mph 37 % 0.0 in 0.0 W/m2 CLR
01:19 26.2 °F 10.4 °F 1014.1 in North 9.7 mph 9.7 mph 37 % 0.0 in 0.0 W/m2 CLR
01:24 26.2 °F 10.8 °F 1014.4 in NNE 6.4 mph 6.4 mph 38 % 0.0 in 0.0 W/m2 CLR
01:29 26.2 °F 11.2 °F 1014.8 in Calm     39 % 0.0 in 0.0 W/m2 CLR
01:34 26.1 °F 11.1 °F 1014.8 in Calm     39 % 0.0 in 0.0 W/m2 CLR
01:39 26.0 °F 11.3 °F 1014.8 in Calm     40 % 0.0 in 0.0 W/m2 CLR
01:44 25.8 °F 11.2 °F 1014.8 in Calm     40 % 0.0 in 0.0 W/m2 CLR
01:50 25.7 °F 11.1 °F 1015.1 in Calm     40 % 0.0 in 0.0 W/m2 CLR
01:55 25.6 °F 11.4 °F 1015.1 in Calm     41 % 0.0 in 0.0 W/m2 CLR
02:00 25.5 °F 10.5 °F 1015.1 in Calm     39 % 0.0 in 0.0 W/m2 CLR
02:05 25.5 °F 11.3 °F 1014.8 in Calm     41 % 0.0 in 0.0 W/m2 CLR
02:10 25.4 °F 11.2 °F 1014.8 in Calm     41 % 0.0 in 0.0 W/m2 CLR
02:15 25.6 °F 10.9 °F 1014.8 in Calm     40 % 0.0 in 0.0 W/m2 CLR
02:20 25.6 °F 11.0 °F 1014.8 in Calm     40 % 0.0 in 0.0 W/m2 CLR
02:25 25.6 °F 10.9 °F 1014.8 in Calm     40 % 0.0 in 0.0 W/m2 CLR
02:30 25.5 °F 10.9 °F 1014.4 in Calm     40 % 0.0 in 0.0 W/m2 CLR
02:35 25.4 °F 10.8 °F 1014.4 in Calm     40 % 0.0 in 0.0 W/m2 CLR
02:40 25.4 °F 10.8 °F 1014.1 in Calm     40 % 0.0 in 0.0 W/m2 CLR
02:45 25.4 °F 11.2 °F 1014.1 in Calm     41 % 0.0 in 0.0 W/m2 CLR
02:50 25.2 °F 11.0 °F 1014.1 in Calm     41 % 0.0 in 0.0 W/m2 CLR
02:55 24.9 °F 10.8 °F 1014.4 in Calm     41 % 0.0 in 0.0 W/m2 CLR
03:00 24.9 °F 10.8 °F 1014.1 in Calm     41 % 0.0 in 0.0 W/m2 CLR
03:05 25.1 °F 10.9 °F 1014.1 in Calm     41 % 0.0 in 0.0 W/m2 CLR
03:10 25.1 °F 10.9 °F 1014.1 in Calm     41 % 0.0 in 0.0 W/m2 CLR
03:15 25.2 °F 11.1 °F 1014.4 in Calm     41 % 0.0 in 0.0 W/m2 CLR
03:20 25.2 °F 11.0 °F 1014.1 in Calm     41 % 0.0 in 0.0 W/m2 CLR
03:25 25.2 °F 11.0 °F 1014.1 in Calm     41 % 0.0 in 0.0 W/m2 CLR
03:30 25.2 °F 11.0 °F 1014.1 in Calm     41 % 0.0 in 0.0 W/m2 CLR
03:35 25.2 °F 10.7 °F 1013.8 in SE 5.6 mph 5.6 mph 40 % 0.0 in 0.0 W/m2 CLR
03:40 25.4 °F 10.4 °F 1013.8 in ENE 5.6 mph   39 % 0.0 in 0.0 W/m2 CLR
03:45 25.3 °F 10.8 °F 1013.8 in Calm     40 % 0.0 in 0.0 W/m2 CLR
03:50 25.2 °F 10.6 °F 1013.8 in Calm     40 % 0.0 in 0.0 W/m2 CLR
03:55 25.2 °F 10.2 °F 1013.4 in Calm     39 % 0.0 in 0.0 W/m2 CLR
04:00 25.2 °F 10.3 °F 1013.1 in Calm     39 % 0.0 in 0.0 W/m2 CLR
04:05 25.1 °F 10.2 °F 1012.8 in Calm     39 % 0.0 in 0.0 W/m2 CLR
04:10 25.1 °F 10.2 °F 1012.8 in Calm     39 % 0.0 in 0.0 W/m2 CLR
04:15 24.8 °F 10.7 °F 1012.8 in Calm     41 % 0.0 in 0.0 W/m2 CLR
04:20 24.7 °F 9.8 °F 1012.4 in Calm     39 % 0.0 in 0.0 W/m2 CLR
04:25 24.8 °F 10.6 °F 1012.4 in Calm     41 % 0.0 in 0.0 W/m2 CLR
04:30 24.8 °F 11.0 °F 1012.1 in Calm     42 % 0.0 in 0.0 W/m2 CLR
04:35 24.6 °F 11.2 °F 1012.4 in Calm     43 % 0.0 in 0.0 W/m2 CLR
04:40 24.3 °F 10.9 °F 1012.1 in Calm     43 % 0.0 in 0.0 W/m2 CLR
04:45 24.1 °F 10.3 °F 1012.1 in NE 6.4 mph 6.4 mph 42 % 0.0 in 0.0 W/m2 CLR
04:50 24.1 °F 10.3 °F 1012.1 in Calm     42 % 0.0 in 0.0 W/m2 CLR
04:55 24.2 °F 10.4 °F 1011.7 in Calm     42 % 0.0 in 0.0 W/m2 CLR
05:00 24.3 °F 10.6 °F 1011.7 in Calm     42 % 0.0 in 0.0 W/m2 CLR
05:05 24.4 °F 11.1 °F 1011.7 in Calm     43 % 0.0 in 0.0 W/m2 CLR
05:10 24.4 °F 10.3 °F 1011.4 in Calm     41 % 0.0 in 0.0 W/m2 CLR
05:15 24.5 °F 10.0 °F 1011.4 in ESE 1.9 mph   40 % 0.0 in 0.0 W/m2 CLR
05:20 24.7 °F 10.2 °F 1011.7 in Calm     40 % 0.0 in 0.0 W/m2 CLR
05:25 24.8 °F 9.9 °F 1011.7 in Calm     39 % 0.0 in 0.0 W/m2 CLR
05:30 24.8 °F 9.9 °F 1011.4 in Calm     39 % 0.0 in 0.0 W/m2 CLR
05:35 24.8 °F 10.3 °F 1011.4 in East 11.1 mph 11.1 mph 40 % 0.0 in 0.0 W/m2 CLR
05:40 24.9 °F 10.4 °F 1011.4 in ENE 1.9 mph 1.9 mph 40 % 0.0 in 0.0 W/m2 CLR
05:45 24.9 °F 10.7 °F 1011.4 in ESE 5.6 mph 5.6 mph 41 % 0.0 in 0.0 W/m2 CLR
05:50 24.9 °F 10.7 °F 1011.1 in East 3.7 mph 3.7 mph 41 % 0.0 in 0.0 W/m2 CLR
05:55 24.9 °F 10.7 °F 1011.4 in Calm     41 % 0.0 in 0.0 W/m2 CLR
06:00 24.8 °F 10.6 °F 1011.4 in Calm     41 % 0.0 in 0.0 W/m2 CLR
06:05 24.7 °F 10.9 °F 1011.1 in ESE 5.6 mph 5.6 mph 42 % 0.0 in 0.0 W/m2 CLR
06:10 24.8 °F 11.1 °F 1011.1 in ESE 14.8 mph 14.8 mph 42 % 0.0 in 0.0 W/m2 CLR
06:12 24.9 °F 11.1 °F 1011.1 in ESE 9.7 mph 9.7 mph 42 % 0.0 in 0.0 W/m2 CLR
06:17 24.9 °F 11.2 °F 1011.1 in SE 9.3 mph 9.3 mph 42 % 0.0 in 0.0 W/m2 CLR
06:22 24.9 °F 11.1 °F 1011.1 in SE 11.3 mph 11.3 mph 42 % 0.0 in 0.0 W/m2 CLR
06:27 24.9 °F 11.2 °F 1011.1 in Calm     42 % 0.0 in 0.0 W/m2 OVC
06:32 24.8 °F 11.1 °F 1011.1 in Calm     42 % 0.0 in 0.0 W/m2 OVC
06:37 24.8 °F 11.0 °F 1011.1 in Calm     42 % 0.0 in 0.0 W/m2 OVC
06:42 24.7 °F 11.3 °F 1011.1 in Calm     43 % 0.0 in 0.0 W/m2 OVC
06:47 24.6 °F 11.6 °F 1011.1 in Calm     44 % 0.0 in 0.0 W/m2 OVC
06:52 24.3 °F 13.2 °F 1011.4 in Calm     50 % 0.0 in 5.0 W/m2 OVC
06:57 24.1 °F 12.1 °F 1011.1 in Calm     47 % 0.0 in 12.0 W/m2 BKN
07:02 24.0 °F 12.0 °F 1011.1 in Calm     47 % 0.0 in 19.0 W/m2 BKN
07:07 23.9 °F 12.2 °F 1011.1 in Calm     48 % 0.0 in 25.0 W/m2 BKN
07:12 23.8 °F 14.2 °F 1011.1 in Calm     55 % 0.0 in 30.0 W/m2 BKN
07:17 23.2 °F 14.2 °F 1011.1 in Calm     57 % 0.0 in 35.0 W/m2 BKN
07:22 22.7 °F 13.5 °F 1011.1 in Calm     56 % 0.0 in 35.0 W/m2 BKN
07:27 22.4 °F 13.2 °F 1011.4 in Calm     56 % 0.0 in 37.0 W/m2 BKN
07:32 22.3 °F 13.6 °F 1011.4 in Calm     58 % 0.0 in 42.0 W/m2 BKN
07:37 22.1 °F 13.7 °F 1011.1 in Calm     59 % 0.0 in 49.0 W/m2 BKN
07:42 21.8 °F 13.4 °F 1011.1 in Calm     59 % 0.0 in 58.0 W/m2 SCT
07:47 21.6 °F 13.3 °F 1011.1 in Calm     59 % 0.0 in 65.0 W/m2 SCT
07:52 21.5 °F 13.4 °F 1011.1 in Calm     60 % 0.0 in 77.0 W/m2 FEW
07:57 21.3 °F 13.5 °F 1011.1 in Calm     61 % 0.0 in 67.0 W/m2 FEW
08:02 21.3 °F 13.8 °F 1011.1 in Calm     62 % 0.0 in 62.0 W/m2 FEW
08:07 21.3 °F 14.0 °F 1011.1 in Calm     63 % 0.0 in 62.0 W/m2 SCT
08:13 21.4 °F 13.3 °F 1011.1 in ESE 1.9 mph   60 % 0.0 in 65.0 W/m2 SCT
08:17 21.8 °F 14.0 °F 1011.1 in Calm     61 % 0.0 in 76.0 W/m2 FEW
08:22 21.9 °F 14.3 °F 1011.1 in Calm     62 % 0.0 in 83.0 W/m2 FEW
08:27 22.0 °F 13.3 °F 1011.4 in SW 5.6 mph   58 % 0.0 in 104.0 W/m2 FEW
08:32 22.3 °F 13.9 °F 1011.4 in Calm     59 % 0.0 in 111.0 W/m2 CLR
08:38 22.6 °F 12.6 °F 1011.4 in Calm     53 % 0.0 in 137.0 W/m2 CLR
08:39 22.7 °F 12.3 °F 1011.7 in Calm     52 % 0.0 in 146.0 W/m2 CLR
08:44 23.4 °F 12.7 °F 1011.7 in Calm     51 % 0.0 in 190.0 W/m2 CLR
08:49 23.7 °F 13.3 °F 1011.7 in Calm     52 % 0.0 in 130.0 W/m2 CLR
08:54 24.3 °F 14.1 °F 1011.7 in SSE 13.0 mph 13.0 mph 53 % 0.0 in 123.0 W/m2 CLR
08:59 24.9 °F 14.7 °F 1011.7 in South 16.7 mph 16.7 mph 53 % 0.0 in 137.0 W/m2 CLR
09:04 25.1 °F 14.8 °F 1011.7 in SSE 22.2 mph 22.2 mph 53 % 0.0 in 134.0 W/m2 CLR
09:09 25.2 °F 15.6 °F 1011.7 in South 24.1 mph 24.1 mph 55 % 0.0 in 155.0 W/m2 CLR
09:14 25.3 °F 15.7 °F 1011.7 in SE 14.8 mph 14.8 mph 55 % 0.0 in 188.0 W/m2 CLR
09:19 25.3 °F 15.9 °F 1011.7 in SSE 27.8 mph 27.8 mph 56 % 0.0 in 313.0 W/m2 CLR
09:24 25.5 °F 16.1 °F 1011.7 in SE 24.1 mph 24.1 mph 56 % 0.0 in 278.0 W/m2 CLR
09:29 25.5 °F 16.3 °F 1011.7 in SSE 24.1 mph 24.1 mph 57 % 0.0 in 241.0 W/m2 CLR
09:34 25.4 °F 16.3 °F 1012.1 in SSE 20.4 mph 20.4 mph 57 % 0.0 in 255.0 W/m2 CLR
09:39 25.4 °F 16.6 °F 1012.1 in SSE 18.5 mph 18.5 mph 58 % 0.0 in 287.0 W/m2 CLR
09:44 25.6 °F 16.7 °F 1012.1 in South 20.4 mph 20.4 mph 58 % 0.0 in 397.0 W/m2 CLR
09:49 25.6 °F 16.7 °F 1012.1 in SSE 24.1 mph 24.1 mph 58 % 0.0 in 450.0 W/m2 CLR
09:54 25.8 °F 16.9 °F 1012.4 in SSE 12.9 mph 12.9 mph 58 % 0.0 in 476.0 W/m2 CLR
09:59 26.1 °F 16.9 °F 1012.1 in South 18.5 mph 18.5 mph 57 % 0.0 in 490.0 W/m2 CLR
10:04 26.1 °F 16.9 °F 1012.4 in SE 11.1 mph 11.1 mph 57 % 0.0 in 529.0 W/m2 CLR
10:09 26.4 °F 16.9 °F 1012.4 in Calm     56 % 0.0 in 571.0 W/m2 CLR
10:14 26.7 °F 16.9 °F 1012.4 in ESE 9.3 mph 9.3 mph 55 % 0.0 in 601.0 W/m2 CLR
10:19 26.8 °F 17.1 °F 1012.1 in South 11.1 mph 11.1 mph 55 % 0.0 in 649.0 W/m2 CLR
10:24 27.1 °F 17.2 °F 1012.1 in ESE 11.1 mph 11.1 mph 55 % 0.0 in 668.0 W/m2 CLR
10:29 27.3 °F 17.2 °F 1012.4 in SE 14.8 mph 14.8 mph 54 % 0.0 in 735.0 W/m2 CLR
10:34 27.1 °F 17.0 °F 1012.4 in ESE 11.1 mph 11.1 mph 54 % 0.0 in 693.0 W/m2 CLR
10:39 27.4 °F 16.7 °F 1012.4 in SSW 14.8 mph 14.8 mph 52 % 0.0 in 714.0 W/m2 CLR
10:44 27.4 °F 17.0 °F 1012.4 in Calm     53 % 0.0 in 244.0 W/m2 CLR
10:49 27.3 °F 16.9 °F 1012.4 in SSE 7.4 mph 7.4 mph 53 % 0.0 in 320.0 W/m2 CLR
10:54 27.2 °F 16.8 °F 1012.4 in Calm     53 % 0.0 in 139.0 W/m2 CLR
10:59 27.0 °F 16.9 °F 1012.4 in East 6.4 mph 6.4 mph 54 % 0.0 in 160.0 W/m2 CLR
11:04 26.9 °F 16.8 °F 1012.4 in SE 13.0 mph 13.0 mph 54 % 0.0 in 264.0 W/m2 CLR
11:09 26.8 °F 16.7 °F 1012.4 in Calm     54 % 0.0 in 246.0 W/m2 CLR
11:14 26.9 °F 16.8 °F 1012.4 in Calm     54 % 0.0 in 281.0 W/m2 CLR
11:19 27.2 °F 17.1 °F 1012.4 in Calm     54 % 0.0 in 851.0 W/m2 CLR
11:24 27.3 °F 16.9 °F 1012.4 in East 7.4 mph 7.4 mph 53 % 0.0 in 234.0 W/m2 CLR
11:29 27.4 °F 17.3 °F 1012.4 in Calm     54 % 0.0 in 276.0 W/m2 CLR
11:34 27.8 °F 17.7 °F 1012.4 in ESE 14.8 mph 14.8 mph 54 % 0.0 in 847.0 W/m2 CLR
11:39 28.2 °F 18.1 °F 1012.1 in East 11.1 mph 11.1 mph 54 % 0.0 in 786.0 W/m2 CLR
11:44 28.3 °F 18.1 °F 1012.1 in SSE 18.5 mph 18.5 mph 54 % 0.0 in 819.0 W/m2 CLR
11:49 28.3 °F 18.1 °F 1012.1 in SE 24.1 mph 24.1 mph 54 % 0.0 in 831.0 W/m2 CLR
11:55 28.1 °F 17.6 °F 1011.7 in East 20.4 mph 20.4 mph 53 % 0.0 in 867.0 W/m2 CLR
12:00 28.3 °F 17.8 °F 1011.7 in SE 24.1 mph 24.1 mph 53 % 0.0 in 234.0 W/m2 CLR
12:05 28.3 °F 17.6 °F 1011.7 in SE 16.7 mph 18.2 mph 52 % 0.0 in 902.0 W/m2 CLR
12:10 28.5 °F 18.0 °F 1011.7 in ESE 20.4 mph 20.4 mph 53 % 0.0 in 902.0 W/m2 CLR
12:15 28.6 °F 17.8 °F 1011.7 in ENE 13.0 mph 13.0 mph 52 % 0.0 in 914.0 W/m2 CLR
12:20 28.8 °F 17.7 °F 1011.7 in SE 16.7 mph 16.7 mph 51 % 0.0 in 225.0 W/m2 CLR
12:25 28.4 °F 17.3 °F 1011.4 in ESE 16.7 mph 16.7 mph 51 % 0.0 in 918.0 W/m2 CLR
12:30 28.7 °F 17.6 °F 1011.4 in ESE 20.4 mph 20.4 mph 51 % 0.0 in 905.0 W/m2 CLR
12:35 28.7 °F 17.6 °F 1011.4 in SE 12.9 mph 12.9 mph 51 % 0.0 in 914.0 W/m2 CLR
12:40 29.0 °F 17.5 °F 1011.4 in ESE 20.4 mph 20.4 mph 50 % 0.0 in 905.0 W/m2 CLR
12:45 28.8 °F 17.4 °F 1011.1 in East 20.4 mph 20.4 mph 50 % 0.0 in 960.0 W/m2 CLR
12:50 29.1 °F 17.6 °F 1011.1 in ESE 18.5 mph 18.8 mph 50 % 0.0 in 211.0 W/m2 CLR
12:55 29.1 °F 17.9 °F 1011.1 in SE 18.5 mph 18.5 mph 51 % 0.0 in 979.0 W/m2 CLR
13:00 29.2 °F 18.1 °F 1011.1 in ESE 22.2 mph 22.2 mph 51 % 0.0 in 916.0 W/m2 CLR
13:05 29.2 °F 17.7 °F 1011.1 in ESE 27.8 mph 27.8 mph 50 % 0.0 in 911.0 W/m2 CLR
13:10 29.1 °F 17.9 °F 1010.7 in East 25.9 mph 25.9 mph 51 % 0.0 in 951.0 W/m2 CLR
13:15 29.2 °F 17.1 °F 1010.7 in SE 29.6 mph 29.6 mph 48 % 0.0 in 911.0 W/m2 CLR
13:20 29.3 °F 17.8 °F 1010.7 in ESE 27.8 mph 27.8 mph 50 % 0.0 in 911.0 W/m2 CLR
13:25 29.7 °F 17.8 °F 1010.7 in ESE 22.5 mph 24.6 mph 49 % 0.0 in 928.0 W/m2 CLR
13:30 29.4 °F 17.2 °F 1010.7 in ESE 24.1 mph 24.1 mph 48 % 0.0 in 919.0 W/m2 CLR
13:35 29.3 °F 17.2 °F 1010.4 in ESE 24.1 mph 24.1 mph 48 % 0.0 in 912.0 W/m2 CLR
13:40 29.4 °F 17.3 °F 1010.4 in East 18.5 mph 18.5 mph 48 % 0.0 in 918.0 W/m2 CLR
13:45 29.7 °F 16.9 °F 1010.4 in SE 20.4 mph 20.8 mph 46 % 0.0 in 923.0 W/m2 CLR
13:50 29.9 °F 16.7 °F 1010.4 in SE 27.4 mph 27.4 mph 45 % 0.0 in 918.0 W/m2 CLR
13:55 30.0 °F 16.8 °F 1010.0 in East 31.5 mph 31.5 mph 45 % 0.0 in 947.0 W/m2 CLR
14:00 29.9 °F 17.7 °F 1010.0 in East 29.6 mph 29.6 mph 48 % 0.0 in 928.0 W/m2 CLR
14:05 29.8 °F 17.6 °F 1010.0 in East 31.5 mph 31.5 mph 48 % 0.0 in 360.0 W/m2 CLR
14:10 29.6 °F 17.7 °F 1009.7 in ESE 30.6 mph 30.6 mph 49 % 0.0 in 1104.0 W/m2 CLR
14:15 29.4 °F 16.9 °F 1009.7 in ESE 25.9 mph 25.9 mph 47 % 0.0 in 346.0 W/m2 CLR
14:20 29.6 °F 16.4 °F 1009.7 in ENE 22.2 mph 22.2 mph 45 % 0.0 in 301.0 W/m2 CLR
14:25 29.6 °F 16.4 °F 1009.7 in SE 18.5 mph 18.5 mph 45 % 0.0 in 253.0 W/m2 CLR
14:30 29.9 °F 16.4 °F 1009.7 in SSE 27.8 mph 27.8 mph 44 % 0.0 in 383.0 W/m2 CLR
14:35 29.9 °F 17.4 °F 1009.4 in ESE 22.2 mph 22.2 mph 47 % 0.0 in 385.0 W/m2 CLR
14:40 29.8 °F 17.3 °F 1009.4 in East 22.2 mph 22.2 mph 47 % 0.0 in 360.0 W/m2 CLR
14:45 29.7 °F 17.6 °F 1009.4 in ESE 22.2 mph 22.2 mph 48 % 0.0 in 403.0 W/m2 CLR
14:50 29.8 °F 17.6 °F 1009.4 in ESE 19.3 mph 19.3 mph 48 % 0.0 in 278.0 W/m2 CLR
14:55 29.5 °F 17.7 °F 1009.4 in SSE 20.4 mph 20.4 mph 49 % 0.0 in 193.0 W/m2 CLR
15:00 29.4 °F 17.6 °F 1009.4 in ESE 22.2 mph 22.2 mph 49 % 0.0 in 183.0 W/m2 CLR
15:05 29.4 °F 17.2 °F 1009.4 in East 18.5 mph 18.5 mph 48 % 0.0 in 162.0 W/m2 CLR
15:10 29.3 °F 17.1 °F 1009.4 in ESE 9.3 mph 9.3 mph 48 % 0.0 in 97.0 W/m2 CLR
15:15 29.3 °F 16.8 °F 1009.4 in SSE 18.5 mph 18.5 mph 47 % 0.0 in 49.0 W/m2 CLR
15:20 29.0 °F 17.2 °F 1009.7 in NW 20.4 mph 20.4 mph 49 % 0.0 in 53.0 W/m2 SCT
15:25 27.9 °F 17.5 °F 1009.7 in NW 20.4 mph 20.4 mph 53 % 0.0 in 40.0 W/m2 SCT
15:30 27.4 °F 18.2 °F 1009.7 in NNE 31.5 mph 31.5 mph 57 % 0.0 in 42.0 W/m2 BKN
15:35 26.2 °F 19.1 °F 1010.0 in NW 22.2 mph 22.2 mph 65 % 1.3 in 51.0 W/m2 RA
15:40 25.1 °F 19.2 °F 1010.0 in North 27.4 mph 27.4 mph 70 % 1.5 in 51.0 W/m2 RA
15:45 23.9 °F 19.0 °F 1010.4 in North 22.2 mph 22.2 mph 74 % 2.0 in 90.0 W/m2 RA
15:50 23.4 °F 19.3 °F 1010.7 in Calm     78 % 3.8 in 53.0 W/m2 RA
15:51 23.3 °F 19.5 °F 1010.7 in Calm     79 % 4.1 in 56.0 W/m2 RA
16:01 23.0 °F 19.9 °F 1010.4 in NE 11.3 mph 11.3 mph 83 % 5.1 in 309.0 W/m2 CLR
16:06 23.2 °F 20.7 °F 1010.7 in Calm     86 % 5.1 in 1007.0 W/m2 RA
16:11 23.1 °F 20.3 °F 1010.7 in Calm     84 % 5.1 in 153.0 W/m2 CLR
16:16 23.0 °F 20.2 °F 1010.7 in Calm     84 % 5.1 in 111.0 W/m2 CLR
16:21 22.9 °F 20.3 °F 1010.7 in Calm     85 % 5.1 in 100.0 W/m2 CLR
16:26 23.0 °F 20.6 °F 1010.4 in Calm     86 % 5.1 in 132.0 W/m2 CLR
16:31 22.9 °F 20.5 °F 1010.4 in Calm     86 % 5.1 in 128.0 W/m2 CLR
16:36 23.1 °F 21.0 °F 1010.4 in Calm     88 % 3.8 in 132.0 W/m2 CLR
16:41 23.1 °F 20.8 °F 1010.4 in Calm     87 % 3.8 in 141.0 W/m2 CLR
16:46 23.2 °F 20.9 °F 1010.4 in Calm     87 % 2.5 in 118.0 W/m2 CLR
16:51 23.2 °F 20.7 °F 1010.4 in Calm     86 % 1.3 in 100.0 W/m2 CLR
16:56 23.2 °F 20.7 °F 1010.4 in Calm     86 % 0.3 in 79.0 W/m2 CLR
17:01 23.2 °F 20.7 °F 1010.7 in Calm     86 % 0.5 in 62.0 W/m2 RA
17:06 23.1 °F 20.7 °F 1010.7 in Calm     86 % 0.8 in 46.0 W/m2 RA
17:11 23.0 °F 20.6 °F 1010.7 in Calm     86 % 1.3 in 42.0 W/m2 RA
17:16 22.9 °F 20.4 °F 1010.7 in Calm     86 % 1.8 in 42.0 W/m2 RA
17:21 22.8 °F 20.6 °F 1010.7 in Calm     87 % 2.0 in 40.0 W/m2 RA
17:26 22.8 °F 20.5 °F 1010.7 in Calm     87 % 2.3 in 46.0 W/m2 RA
17:31 22.8 °F 20.7 °F 1010.7 in Calm     88 % 2.3 in 46.0 W/m2 RA
17:36 22.8 °F 20.7 °F 1010.7 in Calm     88 % 2.5 in 42.0 W/m2 RA
17:41 22.8 °F 20.7 °F 1010.7 in Calm     88 % 2.5 in 44.0 W/m2 BKN
17:46 22.8 °F 20.7 °F 1010.7 in Calm     88 % 3.0 in 49.0 W/m2 RA
17:51 22.8 °F 20.9 °F 1010.7 in Calm     89 % 3.3 in 53.0 W/m2 RA
17:56 22.9 °F 21.0 °F 1010.7 in Calm     89 % 3.3 in 39.0 W/m2 SCT
18:01 22.8 °F 21.1 °F 1010.7 in Calm     90 % 3.0 in 33.0 W/m2 BKN
18:06 22.8 °F 20.9 °F 1010.7 in Calm     89 % 2.5 in 35.0 W/m2 RA
18:11 22.8 °F 21.1 °F 1011.1 in Calm     90 % 2.3 in 32.0 W/m2 BKN
18:16 22.9 °F 21.2 °F 1011.1 in Calm     90 % 1.8 in 49.0 W/m2 RA
18:21 22.8 °F 20.9 °F 1010.7 in NNE 8.0 mph 8.0 mph 89 % 1.5 in 72.0 W/m2 SCT
18:26 22.7 °F 20.8 °F 1011.1 in Calm     89 % 1.5 in 81.0 W/m2 RA
18:31 22.6 °F 20.7 °F 1011.1 in Calm     89 % 1.5 in 97.0 W/m2 RA
18:36 22.7 °F 20.8 °F 1010.7 in Calm     89 % 1.5 in 353.0 W/m2 RA
18:41 22.7 °F 20.8 °F 1011.1 in Calm     89 % 1.5 in 123.0 W/m2 CLR
18:46 22.7 °F 20.8 °F 1011.1 in Calm     89 % 1.5 in 120.0 W/m2 RA
18:51 22.8 °F 20.9 °F 1010.7 in Calm     89 % 1.5 in 137.0 W/m2 RA
18:56 22.7 °F 20.8 °F 1010.7 in Calm     89 % 1.5 in 86.0 W/m2 CLR
19:02 22.7 °F 20.8 °F 1011.1 in Calm     89 % 1.5 in 18.0 W/m2 RA
19:07 22.4 °F 20.3 °F 1011.7 in West 29.0 mph 29.0 mph 88 % 1.5 in 5.0 W/m2 BKN
19:12 20.7 °F 17.7 °F 1011.7 in NW 66.6 mph 66.6 mph 83 % 1.5 in 16.0 W/m2 RA
19:17 18.9 °F 16.9 °F 1012.1 in NNW 57.4 mph 57.4 mph 88 % 9.9 in 65.0 W/m2 RA
19:22 18.4 °F 16.6 °F 1012.1 in North 44.4 mph 44.4 mph 89 % 13.2 in 213.0 W/m2 RA
19:27 18.3 °F 16.6 °F 1012.4 in North 38.9 mph 38.9 mph 90 % 14.2 in 410.0 W/m2 RA
19:32 18.2 °F 16.6 °F 1012.1 in NNE 33.3 mph 33.3 mph 90 % 14.5 in 223.0 W/m2 RA
19:37 18.5 °F 16.8 °F 1012.1 in NE 31.5 mph 31.5 mph 90 % 14.5 in 218.0 W/m2 CLR
19:42 18.7 °F 16.6 °F 1011.7 in North 24.1 mph 24.1 mph 88 % 14.5 in 192.0 W/m2 CLR
19:47 19.0 °F 16.9 °F 1011.7 in NE 18.5 mph 18.5 mph 88 % 14.2 in 179.0 W/m2 CLR
19:52 19.0 °F 16.9 °F 1011.7 in NNE 18.5 mph 18.5 mph 88 % 14.0 in 146.0 W/m2 CLR
19:57 19.0 °F 17.2 °F 1011.7 in Calm     89 % 14.0 in 100.0 W/m2 CLR
20:02 19.1 °F 17.4 °F 1011.7 in Calm     90 % 13.7 in 90.0 W/m2 CLR
20:07 19.2 °F 17.5 °F 1011.7 in Calm     90 % 13.7 in 56.0 W/m2 CLR
20:12 19.2 °F 17.4 °F 1011.7 in Calm     89 % 13.7 in 37.0 W/m2 FEW
20:17 19.3 °F 17.5 °F 1012.1 in Calm     89 % 5.1 in 26.0 W/m2 BKN
20:22 19.4 °F 17.6 °F 1012.1 in Calm     89 % 1.8 in 30.0 W/m2 BKN
20:27 19.6 °F 17.5 °F 1012.1 in South 18.5 mph 18.5 mph 88 % 0.5 in 32.0 W/m2 BKN
20:32 19.5 °F 17.4 °F 1012.1 in SSW 11.3 mph 11.3 mph 88 % 0.0 in 26.0 W/m2 BKN
20:37 19.5 °F 17.3 °F 1012.4 in SSW 7.4 mph 7.4 mph 87 % 0.0 in 18.0 W/m2 BKN
20:42 19.6 °F 17.3 °F 1012.4 in SW 9.3 mph 9.3 mph 87 % 0.0 in 16.0 W/m2 BKN
20:47 19.6 °F 17.4 °F 1012.4 in SW 11.1 mph 11.1 mph 87 % 0.0 in 14.0 W/m2 BKN
20:52 19.7 °F 17.6 °F 1012.4 in SW 7.4 mph 7.4 mph 88 % 0.0 in 12.0 W/m2 BKN
20:57 19.7 °F 17.6 °F 1012.4 in SW 5.6 mph 5.6 mph 88 % 0.0 in 9.0 W/m2 BKN
21:02 19.7 °F 17.6 °F 1012.4 in WSW 9.3 mph 9.3 mph 88 % 0.0 in 7.0 W/m2 BKN
21:07 19.6 °F 17.4 °F 1012.4 in WSW 14.8 mph 14.8 mph 87 % 0.0 in 5.0 W/m2 OVC
21:12 19.7 °F 17.3 °F 1012.4 in WSW 6.4 mph 8.7 mph 86 % 0.0 in 0.0 W/m2 OVC
21:17 19.8 °F 17.4 °F 1012.4 in West 11.1 mph 11.1 mph 86 % 0.0 in 0.0 W/m2 OVC
21:22 19.9 °F 17.3 °F 1012.4 in WSW 13.0 mph 13.0 mph 85 % 0.0 in 0.0 W/m2 OVC
21:27 19.9 °F 17.6 °F 1012.4 in WSW 11.1 mph 11.1 mph 86 % 0.0 in 0.0 W/m2 OVC
21:32 19.9 °F 17.6 °F 1012.4 in SW 5.6 mph 5.8 mph 86 % 0.0 in 0.0 W/m2 OVC
21:37 19.9 °F 17.6 °F 1012.8 in SW 11.3 mph 11.3 mph 86 % 0.0 in 0.0 W/m2 OVC
21:42 19.9 °F 17.7 °F 1012.8 in SW 5.6 mph   87 % 0.0 in 0.0 W/m2 OVC
21:47 19.9 °F 17.7 °F 1012.8 in Calm     87 % 0.0 in 0.0 W/m2 CLR
21:52 19.9 °F 17.8 °F 1012.8 in Calm     88 % 0.0 in 0.0 W/m2 CLR
21:57 19.8 °F 17.8 °F 1012.4 in Calm     88 % 0.0 in 0.0 W/m2 CLR
22:02 19.8 °F 17.8 °F 1012.4 in Calm     88 % 0.0 in 0.0 W/m2 CLR
22:07 19.8 °F 17.6 °F 1012.4 in Calm     87 % 0.0 in 0.0 W/m2 CLR
22:12 19.9 °F 17.8 °F 1012.8 in Calm     88 % 0.0 in 0.0 W/m2 CLR
22:17 19.9 °F 17.8 °F 1012.8 in Calm     88 % 0.0 in 0.0 W/m2 CLR
22:22 19.7 °F 17.7 °F 1012.8 in Calm     88 % 0.0 in 0.0 W/m2 CLR
22:27 19.7 °F 17.6 °F 1012.8 in Calm     88 % 0.0 in 0.0 W/m2 CLR
22:32 19.6 °F 17.5 °F 1012.8 in Calm     88 % 0.0 in 0.0 W/m2 CLR
22:37 19.5 °F 17.6 °F 1012.8 in Calm     89 % 0.0 in 0.0 W/m2 CLR
22:42 19.5 °F 17.6 °F 1013.1 in Calm     89 % 0.0 in 0.0 W/m2 CLR
22:47 19.4 °F 17.6 °F 1013.1 in Calm     89 % 0.0 in 0.0 W/m2 CLR
22:52 19.4 °F 17.6 °F 1012.8 in Calm     89 % 0.0 in 0.0 W/m2 CLR
22:53 19.4 °F 17.6 °F 1012.8 in Calm     89 % 0.0 in 0.0 W/m2 CLR
22:58 19.4 °F 17.6 °F 1012.8 in Calm     89 % 0.0 in 0.0 W/m2 CLR
23:03 19.3 °F 17.5 °F 1012.8 in Calm     89 % 0.0 in 0.0 W/m2 CLR
23:08 19.3 °F 17.5 °F 1012.8 in Calm     89 % 0.0 in 0.0 W/m2 CLR
23:13 19.3 °F 17.5 °F 1013.1 in Calm     89 % 0.0 in 0.0 W/m2 CLR
23:18 19.3 °F 17.4 °F 1013.1 in Calm     89 % 0.0 in 0.0 W/m2 CLR
23:23 19.3 °F 17.2 °F 1013.1 in Calm     88 % 0.0 in 0.0 W/m2 CLR
23:28 19.3 °F 17.4 °F 1013.1 in Calm     89 % 0.0 in 0.0 W/m2 CLR
23:33 19.3 °F 17.5 °F 1012.8 in Calm     89 % 0.0 in 0.0 W/m2 CLR
23:38 19.3 °F 17.4 °F 1012.8 in Calm     89 % 0.0 in 0.0 W/m2 CLR
23:43 19.1 °F 17.3 °F 1013.1 in Calm     89 % 0.0 in 0.0 W/m2 CLR
23:48 19.1 °F 17.3 °F 1012.8 in Calm     89 % 0.0 in 0.0 W/m2 CLR
23:53 19.1 °F 17.2 °F 1012.8 in Calm     89 % 0.0 in 0.0 W/m2 CLR
23:58 19.1 °F 17.4 °F 1012.8 in Calm     90 % 0.0 in 0.0 W/m2 CLR
Lo Temps de Massalio
Compliments of Weather Underground - 1.25 mb